OEDF/DMM METAR and TAF weather

Enter ICAO airport designator
Station Type Date Time Source
OEDF METAR 2022/01/29 12:00 UTC NOAA

OEDF 291200Z 36014KT 5000 BLDU SCT040 SCT100 19/07 Q1020 NOSIG


Station Type Date Time Source
OEDF Decoded METAR 2022/01/29 12:00 UTC NOAA

Dammam-King Fahd International Airport, Saudi Arabia (OEDF) 26-28N 049-47E
Jan 29, 2022 - 07:00 AM EST / 2022.01.29 1200 UTC
Wind: from the N (360 degrees) at 16 MPH (14 KT):0
Visibility: 3 mile(s):0
Sky conditions: partly cloudy
Weather: blowing widespread dust
Temperature: 66 F (19 C)
Dew Point: 44 F (7 C)
Relative Humidity: 45%
Pressure (altimeter): 30.12 in. Hg (1020 hPa)
ob: OEDF 291200Z 36014KT 5000 BLDU SCT040 SCT100 19/07 Q1020 NOSIG
cycle: 12

Station Type Date Time Source
OEDF TAF 2022/01/29 12:33 UTC NOAA

TAF TAF OEDF 290900Z 2912/3018 33010KT 5000 DU NSC
TEMPO 2922/3004 2000 HZ
BECMG 3006/3008 8000

Example: see airport list